Banos de Copahue, Argentina
Current Conditions -  °F | °C
As of 10:00 PM on Saturday 25 Oct 2014 (Local Time) from SCQP Reporting Station
Clear Clear  
Wind Chill: 14°   Ceiling: Unl
Heat Index: 14°   Visibility: 6mi
Dew Point: 11°   Wind: 3mph
Humidity: 82%   Direction: 280°W
Pressure: 29.88"   Gusts: NA
Location:  37.8°S, 71.12°W
Report Text: SCQP 260100Z 28003KT CAVOK 14/11 Q1012
Loading
Personal Weather Stations






























Interactive Weather Map
Tropical Storm Tracking
New forecast layout! Learn more

10-Day Weather Forecast

Advertisements
Track Severe Weather on mobile